AirNav   Air Wisconsin pilot careers
 
 590 users online  

ND38 Rices Airpark
Maddock, North Dakota, USA


FAA INFORMATION EFFECTIVE 12 OCTOBER 2017

Location

FAA Identifier: ND38
Lat/Long: 47-57-30.0300N / 099-32-11.4770W
47-57.500500N / 099-32.191283W
47.9583417 / -99.5365214
(estimated)
Elevation: 1575 ft. / 480 m (estimated)
Variation: 09E (1985)
From city: 1 mile SW of MADDOCK, ND
Time zone: UTC -5 (UTC -6 during Standard Time)
Zip code: 58348

Airport Operations

Airport use: Private use. Permission required prior to landing
Activation date: 08/1964
Control tower: no
ARTCC: MINNEAPOLIS CENTER
FSS: GRAND FORKS FLIGHT SERVICE STATION
Attendance: UNATNDD
Wind indicator: no
Segmented circle: no

Airport Communications

WX AWOS-3 at 5H4 (19 nm SW): 118.825 (701-324-2058)
  • MULTICOM 122.9.

Nearby radio navigation aids

VOR radial/distance  VOR name  Freq  Var
DVLr242/26.7DEVILS LAKE VOR/DME111.0007E

Airport Services

Airframe service: NONE
Powerplant service: NONE

Runway Information

Runway NW/SE

Dimensions: 2200 x 100 ft. / 671 x 30 m
Surface: turf
RUNWAY NW  RUNWAY SE
Traffic pattern: leftleft

Airport Ownership and Management from official FAA records

Ownership: Privately-owned
Owner: JOHN D. RICE, JR.
BOX 93
MADDOCK, ND 58348
Phone 701-438-2350
Manager: JOHN D. RICE, JR.
BOX 93
MADDOCK, ND 58348
Phone 701-438-2350

Airport Operational Statistics

Aircraft based on the field: 2
Single engine airplanes: 2
    

Instrument Procedures

There are no published instrument procedures at ND38.

Some nearby airports with instrument procedures:

5H4 - Harvey Municipal Airport (19 nm SW)
KDVL - Devils Lake Regional Airport (27 nm E)
KRUG - Rugby Municipal Airport (32 nm NW)
9D7 - Cando Municipal Airport (34 nm N)
46D - Carrington Municipal Airport (34 nm SE)
 
Loc | Ops | Rwys | IFR | FBO | Links
Com | Nav | Svcs | Stats | Notes


 
Area around ND38 (Rices Airpark)
 
Road maps at: MapQuest Bing Google
 
Aerial photo
No photo
 
Sectional chart

 
Airport distance calculator
Flying to Rices Airpark? Find the distance to fly.

From to ND38

Sunrise and sunset
Times for 23-Oct-2017
 Local
(UTC-5)
 Zulu
(UTC)
Morning civil twilight07:3912:39
Sunrise08:1013:10
Sunset18:3523:35
Evening civil twilight19:0600:06

Current date and time
Zulu (UTC)  24-Oct-2017 04:26:12
Local (UTC-5)  23-Oct-2017 23:26:12
 
METAR
K5H4 
19nm SW 
240355Z AUTO 32010KT 10SM CLR 03/M00 A3028 RMK AO2
KDVL 
27nm E 
240356Z AUTO 32009KT 10SM CLR 00/M03 A3022 RMK AO2 SLP265 T00001028 FZRANO
KRUG 
32nm NW 
240355Z AUTO 31009KT 10SM CLR 01/M02 A3025 RMK AO2
K9D7 
34nm N 
240355Z AUTO 32008KT 10SM CLR M00/M04 A3025 RMK AO2
K46D 
34nm SE 
240355Z AUTO 31014KT 10SM CLR 03/M02 A3023 RMK AO2
TAF
KDVL 
27nm E 
231720Z 2318/2418 32017G26KT P6SM FEW015 FM240200 34014KT P6SM SCT200 FM241300 33015G24KT P6SM FEW150
NOTAMs
Click for the latest NOTAMs
NOTAMs are issued by the DoD/FAA and will open in a separate window not controlled by AirNav.

 

 
 

Would you like to see your business listed on this page?

 If your business provides an interesting product or service to pilots, flight crews, aircraft, or users of the Rices Airpark, you should consider listing it here.  To start the listing process, click on the button below
 
Add a business
 

Other Pages about Rices Airpark

Update a link
 
Copyright © AirNav, LLC. All rights reserved. Privacy Policy  Contact